Time;durP1;ratioP1;P1;durP2;ratioP2;P2;SDS_P1;SDS_P2;PMS_P1;PMS_P2;Temp;Humidity;BMP_temperature;BMP_pressure;BME280_temperature;BME280_humidity;BME280_pressure;Samples;Min_cycle;Max_cycle;Signal;HPM_P1;HPM_P2
2022/10/13 00:00:14;;;;;;;23.00;14.43;;;;;;;;;;5239702;28;20455;-83
2022/10/13 00:02:45;;;;;;;20.25;13.88;;;;;;;;;;5239575;28;20329;-83
2022/10/13 00:05:15;;;;;;;16.98;15.40;;;;;;;;;;5239065;28;20478;-83
2022/10/13 00:07:45;;;;;;;16.70;15.15;;;;;;;;;;5240222;28;20509;-82
2022/10/13 00:10:16;;;;;;;15.53;14.23;;;;;;;;;;5239005;28;20047;-83
2022/10/13 00:12:46;;;;;;;13.98;12.80;;;;;;;;;;5238866;28;20795;-82
2022/10/13 00:15:16;;;;;;;17.07;15.63;;;;;;;;;;5238149;28;20047;-83
2022/10/13 00:17:47;;;;;;;15.10;13.68;;;;;;;;;;5239979;28;20275;-84
2022/10/13 00:20:17;;;;;;;13.13;12.02;;;;;;;;;;5239745;28;20072;-84
2022/10/13 00:22:47;;;;;;;15.32;13.43;;;;;;;;;;5221066;28;20562;-84
2022/10/13 00:25:17;;;;;;;26.53;14.67;;;;;;;;;;5237880;28;20009;-83
2022/10/13 00:27:48;;;;;;;14.67;13.33;;;;;;;;;;5240888;28;20256;-84
2022/10/13 00:30:18;;;;;;;17.70;14.80;;;;;;;;;;5241723;28;20270;-84
2022/10/13 00:32:48;;;;;;;14.03;12.93;;;;;;;;;;5220022;28;20013;-83
2022/10/13 00:35:18;;;;;;;13.17;12.03;;;;;;;;;;5236101;28;20262;-84
2022/10/13 00:37:49;;;;;;;15.50;14.05;;;;;;;;;;5236783;28;20278;-84
2022/10/13 00:40:19;;;;;;;14.93;13.17;;;;;;;;;;5237022;28;20021;-84
2022/10/13 00:42:49;;;;;;;15.07;12.88;;;;;;;;;;5237152;28;20271;-83
2022/10/13 00:45:21;;;;;;;12.57;11.43;;;;;;;;;;5236351;28;20020;-83
2022/10/13 00:47:59;;;;;;;13.52;12.40;;;;;;;;;;5239802;28;20517;-82
2022/10/13 00:50:36;;;;;;;15.15;13.15;;;;;;;;;;5248544;28;20043;-84
2022/10/13 00:53:07;;;;;;;20.55;12.93;;;;;;;;;;5230728;28;20017;-82
2022/10/13 00:55:38;;;;;;;12.70;11.48;;;;;;;;;;5232185;28;20088;-82
2022/10/13 00:58:11;;;;;;;15.50;14.00;;;;;;;;;;5250305;28;20013;-81
2022/10/13 01:00:45;;;;;;;13.52;12.20;;;;;;;;;;5232398;28;20047;-82
2022/10/13 01:03:19;;;;;;;14.45;13.23;;;;;;;;;;5249635;28;20024;-83
2022/10/13 01:05:50;;;;;;;16.02;12.43;;;;;;;;;;5248646;28;20101;-84
2022/10/13 01:08:20;;;;;;;13.85;12.52;;;;;;;;;;5249948;28;20012;-82
2022/10/13 01:11:21;;;;;;;16.52;14.25;;;;;;;;;;5251015;28;20092;-83
2022/10/13 01:14:01;;;;;;;15.05;11.15;;;;;;;;;;5230979;28;20055;-82
2022/10/13 01:16:40;;;;;;;16.67;13.82;;;;;;;;;;5250620;28;20024;-83
2022/10/13 01:19:29;;;;;;;13.82;12.45;;;;;;;;;;5250776;28;20017;-82
2022/10/13 01:22:05;;;;;;;14.73;12.52;;;;;;;;;;5231031;28;20033;-83
2022/10/13 01:25:05;;;;;;;15.23;12.43;;;;;;;;;;5249191;28;20043;-80
2022/10/13 01:27:54;;;;;;;14.52;12.70;;;;;;;;;;5233114;28;20029;-82
2022/10/13 01:30:24;;;;;;;20.92;11.93;;;;;;;;;;5232756;28;20072;-82
2022/10/13 01:33:00;;;;;;;12.95;11.73;;;;;;;;;;5232654;28;20016;-83
2022/10/13 01:35:40;;;;;;;11.75;10.55;;;;;;;;;;5247875;28;20025;-82
2022/10/13 01:38:46;;;;;;;17.15;12.32;;;;;;;;;;5249335;28;20055;-82
2022/10/13 01:41:16;;;;;;;18.02;12.38;;;;;;;;;;5164991;28;20043;-84
2022/10/13 01:43:46;;;;;;;13.20;11.63;;;;;;;;;;5208575;28;20060;-83
2022/10/13 01:46:25;;;;;;;19.07;13.07;;;;;;;;;;5232075;28;20255;-83
2022/10/13 01:48:58;;;;;;;15.80;14.23;;;;;;;;;;5250260;28;20306;-80
2022/10/13 01:51:30;;;;;;;14.32;12.50;;;;;;;;;;5250013;28;20017;-82
2022/10/13 01:54:00;;;;;;;14.60;13.23;;;;;;;;;;5248172;28;20055;-83
2022/10/13 01:56:30;;;;;;;14.68;13.23;;;;;;;;;;5248481;28;20180;-81
2022/10/13 01:59:03;;;;;;;13.87;10.53;;;;;;;;;;5249037;28;20128;-81
2022/10/13 02:01:37;;;;;;;14.32;12.88;;;;;;;;;;5233271;28;20315;-82
2022/10/13 02:04:13;;;;;;;13.60;12.35;;;;;;;;;;5226362;28;20037;-84
2022/10/13 02:06:46;;;;;;;12.70;11.20;;;;;;;;;;5237984;28;20103;-83
2022/10/13 02:09:22;;;;;;;17.85;12.52;;;;;;;;;;5219094;28;20028;-83
2022/10/13 02:11:57;;;;;;;12.73;11.18;;;;;;;;;;5236918;28;20534;-84
2022/10/13 02:14:28;;;;;;;14.52;12.43;;;;;;;;;;5236264;28;20442;-84
2022/10/13 02:17:00;;;;;;;11.50;10.57;;;;;;;;;;5236914;28;20024;-82
2022/10/13 02:19:33;;;;;;;12.25;11.25;;;;;;;;;;5239335;28;20495;-84
2022/10/13 02:22:04;;;;;;;14.38;13.00;;;;;;;;;;5238787;28;20047;-83
2022/10/13 02:24:35;;;;;;;11.82;10.88;;;;;;;;;;5236079;28;20013;-83
2022/10/13 02:27:06;;;;;;;15.18;13.00;;;;;;;;;;5237786;28;20505;-82
2022/10/13 02:29:47;;;;;;;16.80;12.45;;;;;;;;;;5219040;28;20025;-84
2022/10/13 02:32:18;;;;;;;20.02;12.02;;;;;;;;;;5236592;28;20028;-83
2022/10/13 02:34:49;;;;;;;19.23;14.27;;;;;;;;;;5217946;28;20028;-83
2022/10/13 02:37:19;;;;;;;13.43;11.55;;;;;;;;;;5237071;28;20485;-84
2022/10/13 02:39:49;;;;;;;13.13;11.13;;;;;;;;;;5218653;28;20025;-84
2022/10/13 02:42:19;;;;;;;15.35;13.52;;;;;;;;;;5237306;28;20025;-83
2022/10/13 02:44:50;;;;;;;15.82;12.00;;;;;;;;;;5236250;28;20024;-83
2022/10/13 02:49:57;;;;;;;12.02;10.98;;;;;;;;;;5290009;28;20309;-77
2022/10/13 02:52:27;;;;;;;18.40;12.93;;;;;;;;;;5294203;28;20016;-79
2022/10/13 02:54:58;;;;;;;11.43;10.43;;;;;;;;;;5312390;28;20237;-79
2022/10/13 02:57:28;;;;;;;14.85;12.98;;;;;;;;;;5314684;28;20015;-79
2022/10/13 02:59:58;;;;;;;15.32;11.50;;;;;;;;;;5295508;28;20056;-79
2022/10/13 03:02:28;;;;;;;13.55;12.35;;;;;;;;;;5313305;28;20043;-79
2022/10/13 03:04:59;;;;;;;20.10;12.32;;;;;;;;;;5294769;28;20022;-79
2022/10/13 03:07:29;;;;;;;17.35;12.52;;;;;;;;;;5314101;28;20025;-77
2022/10/13 03:10:00;;;;;;;19.38;13.00;;;;;;;;;;5294817;28;20027;-79
2022/10/13 03:12:30;;;;;;;13.13;12.02;;;;;;;;;;5313291;28;20019;-79
2022/10/13 03:15:01;;;;;;;17.45;10.98;;;;;;;;;;5293531;28;20023;-79
2022/10/13 03:17:31;;;;;;;23.52;13.75;;;;;;;;;;5316424;28;20023;-79
2022/10/13 03:20:01;;;;;;;12.50;11.25;;;;;;;;;;5323960;28;20080;-80
2022/10/13 03:22:32;;;;;;;17.80;12.48;;;;;;;;;;5323713;28;20030;-79
2022/10/13 03:25:02;;;;;;;14.07;13.00;;;;;;;;;;5301142;28;20500;-79
2022/10/13 03:27:33;;;;;;;26.23;12.52;;;;;;;;;;5313031;28;20046;-79
2022/10/13 03:30:03;;;;;;;12.70;11.57;;;;;;;;;;5312784;28;20015;-79
2022/10/13 03:32:33;;;;;;;13.80;12.52;;;;;;;;;;5312387;28;20087;-79
2022/10/13 03:35:05;;;;;;;18.13;11.98;;;;;;;;;;5311019;28;20019;-79
2022/10/13 03:37:35;;;;;;;13.85;12.48;;;;;;;;;;5311945;28;20015;-80
2022/10/13 03:40:06;;;;;;;11.52;10.38;;;;;;;;;;5311500;28;20076;-80
2022/10/13 03:42:36;;;;;;;17.45;12.50;;;;;;;;;;5293310;28;20030;-80
2022/10/13 03:45:07;;;;;;;19.60;12.45;;;;;;;;;;5311324;28;20365;-79
2022/10/13 03:47:37;;;;;;;14.70;11.30;;;;;;;;;;5311321;28;20050;-78
2022/10/13 03:50:08;;;;;;;14.82;12.43;;;;;;;;;;5310682;28;20023;-78
2022/10/13 03:52:38;;;;;;;13.15;11.10;;;;;;;;;;5311178;28;20027;-78
2022/10/13 03:55:09;;;;;;;14.07;12.77;;;;;;;;;;5293125;28;20471;-79
2022/10/13 03:57:39;;;;;;;15.30;13.75;;;;;;;;;;5317176;27;20334;-77
2022/10/13 04:00:10;;;;;;;12.43;11.45;;;;;;;;;;5320034;27;20015;-78
2022/10/13 04:02:40;;;;;;;21.55;14.43;;;;;;;;;;5314942;27;20026;-79
2022/10/13 04:05:10;;;;;;;13.25;11.80;;;;;;;;;;5314302;27;20072;-81
2022/10/13 04:07:41;;;;;;;15.68;12.75;;;;;;;;;;5316366;27;20067;-79
2022/10/13 04:10:11;;;;;;;15.33;14.10;;;;;;;;;;5315927;27;20485;-81
2022/10/13 04:12:41;;;;;;;14.27;12.88;;;;;;;;;;5315240;27;20275;-79
2022/10/13 04:15:11;;;;;;;14.10;12.88;;;;;;;;;;5311285;27;20418;-78
2022/10/13 04:17:41;;;;;;;17.65;14.20;;;;;;;;;;5312169;27;20439;-78
2022/10/13 04:20:12;;;;;;;18.43;14.93;;;;;;;;;;5311980;27;20073;-79
2022/10/13 04:22:42;;;;;;;15.77;13.13;;;;;;;;;;5311919;27;20265;-77
2022/10/13 04:25:12;;;;;;;15.10;13.50;;;;;;;;;;5310865;27;20068;-78
2022/10/13 04:27:42;;;;;;;15.80;14.30;;;;;;;;;;5311392;27;20040;-78
2022/10/13 04:30:13;;;;;;;18.45;13.93;;;;;;;;;;5293137;27;20099;-78
2022/10/13 04:32:43;;;;;;;18.58;13.18;;;;;;;;;;5293460;27;20015;-78
2022/10/13 04:35:14;;;;;;;13.85;12.55;;;;;;;;;;5310997;27;20476;-79
2022/10/13 04:37:44;;;;;;;14.75;13.25;;;;;;;;;;5311921;27;20396;-79
2022/10/13 04:40:14;;;;;;;16.30;11.73;;;;;;;;;;5311485;27;20106;-78
2022/10/13 04:42:44;;;;;;;16.33;12.82;;;;;;;;;;5311888;27;20023;-79
2022/10/13 04:45:15;;;;;;;18.87;14.80;;;;;;;;;;5310738;27;20015;-81
2022/10/13 04:47:45;;;;;;;14.98;11.90;;;;;;;;;;5312662;27;20248;-78
2022/10/13 04:50:16;;;;;;;14.88;11.57;;;;;;;;;;5313358;27;20094;-78
2022/10/13 04:52:46;;;;;;;13.95;11.98;;;;;;;;;;5311992;27;20057;-78
2022/10/13 04:55:16;;;;;;;13.98;11.55;;;;;;;;;;5297896;27;20034;-78
2022/10/13 04:57:46;;;;;;;17.42;14.10;;;;;;;;;;5293293;28;20400;-80
2022/10/13 05:00:17;;;;;;;15.37;13.37;;;;;;;;;;5275322;28;20046;-78
2022/10/13 05:02:47;;;;;;;15.85;12.18;;;;;;;;;;5275096;28;20257;-79
2022/10/13 05:05:17;;;;;;;17.77;15.13;;;;;;;;;;5287446;27;20075;-79
2022/10/13 05:07:48;;;;;;;15.82;14.55;;;;;;;;;;5293182;28;20049;-80
2022/10/13 05:10:18;;;;;;;18.65;15.40;;;;;;;;;;5291676;28;20020;-79
2022/10/13 05:12:50;;;;;;;21.63;13.63;;;;;;;;;;5272558;28;20098;-79
2022/10/13 05:15:20;;;;;;;19.30;15.75;;;;;;;;;;5293783;28;20043;-79
2022/10/13 05:17:50;;;;;;;14.95;13.65;;;;;;;;;;5297183;28;20022;-79
2022/10/13 05:20:20;;;;;;;20.23;15.10;;;;;;;;;;5295036;28;20027;-78
2022/10/13 05:22:51;;;;;;;18.57;15.93;;;;;;;;;;5294563;28;20272;-79
2022/10/13 05:25:21;;;;;;;15.95;14.70;;;;;;;;;;5296079;28;20258;-79
2022/10/13 05:27:51;;;;;;;17.17;14.77;;;;;;;;;;5278854;28;20087;-79
2022/10/13 05:30:22;;;;;;;15.43;14.20;;;;;;;;;;5292861;28;20020;-81
2022/10/13 05:32:52;;;;;;;23.13;13.38;;;;;;;;;;5294581;28;20294;-79
2022/10/13 05:35:23;;;;;;;16.15;14.77;;;;;;;;;;5292554;28;20024;-79
2022/10/13 05:37:53;;;;;;;15.77;14.30;;;;;;;;;;5293042;28;20088;-80
2022/10/13 05:40:23;;;;;;;21.30;14.50;;;;;;;;;;5293488;28;20126;-80
2022/10/13 05:42:54;;;;;;;18.45;15.98;;;;;;;;;;5294801;28;20782;-80
2022/10/13 05:45:27;;;;;;;14.70;13.23;;;;;;;;;;5274787;28;20015;-80
2022/10/13 05:47:58;;;;;;;18.75;16.65;;;;;;;;;;5296914;28;20469;-81
2022/10/13 05:50:28;;;;;;;21.02;13.55;;;;;;;;;;5278535;28;20028;-80
2022/10/13 05:52:58;;;;;;;16.48;15.05;;;;;;;;;;5278225;28;20015;-80
2022/10/13 05:55:31;;;;;;;19.90;16.27;;;;;;;;;;5278356;28;20357;-80
2022/10/13 05:58:01;;;;;;;24.20;13.27;;;;;;;;;;5298358;28;20261;-80
2022/10/13 06:00:32;;;;;;;14.70;13.32;;;;;;;;;;5297275;28;20517;-81
2022/10/13 06:03:17;;;;;;;15.00;13.00;;;;;;;;;;5296961;28;20028;-80
2022/10/13 06:05:48;;;;;;;14.55;12.63;;;;;;;;;;5296954;28;20259;-81
2022/10/13 06:08:18;;;;;;;18.67;15.60;;;;;;;;;;5298568;28;20043;-84
2022/10/13 06:10:52;;;;;;;15.48;13.77;;;;;;;;;;5301153;28;20065;-84
2022/10/13 06:13:22;;;;;;;17.25;15.50;;;;;;;;;;5282958;28;20392;-83
2022/10/13 06:15:53;;;;;;;19.85;13.82;;;;;;;;;;5302174;28;20015;-84
2022/10/13 06:18:23;;;;;;;16.80;13.25;;;;;;;;;;5303721;28;20024;-83
2022/10/13 06:20:56;;;;;;;17.75;14.27;;;;;;;;;;5304763;28;20036;-82
2022/10/13 06:23:27;;;;;;;16.15;14.48;;;;;;;;;;5307868;28;20020;-84
2022/10/13 06:29:06;;;;;;;19.27;12.57;;;;;;;;;;5302807;28;20030;-83
2022/10/13 06:34:44;;;;;;;16.80;15.43;;;;;;;;;;5302459;28;20033;-83
2022/10/13 06:37:14;;;;;;;14.48;13.13;;;;;;;;;;5285127;28;20039;-82
2022/10/13 06:39:47;;;;;;;17.73;12.93;;;;;;;;;;5303446;28;20119;-82
2022/10/13 06:42:24;;;;;;;17.77;14.93;;;;;;;;;;5302855;28;20116;-83
2022/10/13 06:44:55;;;;;;;19.80;14.48;;;;;;;;;;5281933;28;20016;-84
2022/10/13 06:47:46;;;;;;;19.52;12.90;;;;;;;;;;5300929;28;20047;-82
2022/10/13 06:50:16;;;;;;;14.55;13.15;;;;;;;;;;5282650;28;20035;-83
2022/10/13 06:52:47;;;;;;;23.67;14.38;;;;;;;;;;5283655;28;20019;-82
2022/10/13 06:55:20;;;;;;;13.20;11.60;;;;;;;;;;5301113;28;20047;-84
2022/10/13 06:57:53;;;;;;;15.85;14.40;;;;;;;;;;5301744;28;20055;-82
2022/10/13 07:00:27;;;;;;;13.48;12.15;;;;;;;;;;5290181;28;20024;-81
2022/10/13 07:02:59;;;;;;;11.57;10.52;;;;;;;;;;5303027;28;20023;-81
2022/10/13 07:05:30;;;;;;;17.15;12.50;;;;;;;;;;5321752;28;20018;-82
2022/10/13 07:08:04;;;;;;;26.70;14.50;;;;;;;;;;5321223;28;20023;-83
2022/10/13 07:10:36;;;;;;;19.58;14.40;;;;;;;;;;5304512;28;20029;-82
2022/10/13 07:13:07;;;;;;;14.88;12.52;;;;;;;;;;5304099;28;20030;-84
2022/10/13 07:15:47;;;;;;;17.95;13.38;;;;;;;;;;5322593;28;20376;-81
2022/10/13 07:18:17;;;;;;;16.98;15.15;;;;;;;;;;5324378;28;20360;-82
2022/10/13 07:20:48;;;;;;;14.98;13.50;;;;;;;;;;5323159;28;20031;-81
2022/10/13 07:23:20;;;;;;;14.43;10.85;;;;;;;;;;5321799;28;20396;-79
2022/10/13 07:25:53;;;;;;;15.57;14.00;;;;;;;;;;5316673;28;20213;-79
2022/10/13 07:28:24;;;;;;;13.38;12.13;;;;;;;;;;5313917;28;20018;-80
2022/10/13 07:30:54;;;;;;;15.57;12.82;;;;;;;;;;5315676;28;20019;-80
2022/10/13 07:33:25;;;;;;;12.07;10.98;;;;;;;;;;5301062;27;20434;-79
2022/10/13 07:35:57;;;;;;;12.40;11.18;;;;;;;;;;5302416;27;20026;-79
2022/10/13 07:38:27;;;;;;;13.55;11.75;;;;;;;;;;5319836;27;20106;-79
2022/10/13 07:41:01;;;;;;;13.83;12.43;;;;;;;;;;5299918;27;20069;-79
2022/10/13 07:43:32;;;;;;;12.90;11.63;;;;;;;;;;5280328;28;20712;-79
2022/10/13 07:46:06;;;;;;;12.60;9.77;;;;;;;;;;5299214;28;20023;-80
2022/10/13 07:48:36;;;;;;;12.30;11.20;;;;;;;;;;5280194;28;20023;-79
2022/10/13 07:51:08;;;;;;;16.25;9.90;;;;;;;;;;5299124;28;20022;-80
2022/10/13 07:53:40;;;;;;;16.58;10.23;;;;;;;;;;5299098;28;20023;-79
2022/10/13 07:56:11;;;;;;;12.80;10.23;;;;;;;;;;5299959;28;20024;-81
2022/10/13 07:58:42;;;;;;;12.95;10.82;;;;;;;;;;5299334;28;20365;-79
2022/10/13 08:01:14;;;;;;;15.88;11.10;;;;;;;;;;5298817;28;20099;-79
2022/10/13 08:03:44;;;;;;;13.88;10.23;;;;;;;;;;5298798;28;20071;-79
2022/10/13 08:06:15;;;;;;;21.77;12.93;;;;;;;;;;5299087;28;20046;-80
2022/10/13 08:08:46;;;;;;;12.25;11.18;;;;;;;;;;5299621;28;20034;-80
2022/10/13 08:11:16;;;;;;;12.48;10.45;;;;;;;;;;5280682;28;20334;-80
2022/10/13 08:13:48;;;;;;;16.48;11.20;;;;;;;;;;5298331;28;20051;-79
2022/10/13 08:16:18;;;;;;;12.60;11.25;;;;;;;;;;5298539;28;20019;-80
2022/10/13 08:18:49;;;;;;;12.57;10.15;;;;;;;;;;5298949;28;20027;-79
2022/10/13 08:21:21;;;;;;;11.20;10.13;;;;;;;;;;5280400;28;20019;-80
2022/10/13 08:23:51;;;;;;;11.10;9.60;;;;;;;;;;5280523;28;20015;-80
2022/10/13 08:26:23;;;;;;;14.85;9.52;;;;;;;;;;5298755;28;20046;-81
2022/10/13 08:28:53;;;;;;;16.15;10.20;;;;;;;;;;5299211;28;20024;-80
2022/10/13 08:31:23;;;;;;;11.45;10.55;;;;;;;;;;5299232;28;20024;-80
2022/10/13 08:33:53;;;;;;;16.57;11.57;;;;;;;;;;5298221;28;20026;-80
2022/10/13 08:36:24;;;;;;;22.20;11.70;;;;;;;;;;5299021;28;20340;-80
2022/10/13 08:38:54;;;;;;;14.82;9.95;;;;;;;;;;5299186;28;20285;-80
2022/10/13 08:41:27;;;;;;;14.63;11.38;;;;;;;;;;5299108;28;20020;-80
2022/10/13 08:44:10;;;;;;;10.05;9.32;;;;;;;;;;5299380;28;20024;-79
2022/10/13 08:46:45;;;;;;;9.05;8.20;;;;;;;;;;5299557;28;20053;-82
2022/10/13 08:49:16;;;;;;;14.32;11.02;;;;;;;;;;5298844;28;20023;-81
2022/10/13 08:51:46;;;;;;;12.00;10.77;;;;;;;;;;5276067;22;20051;-81
2022/10/13 08:54:18;;;;;;;12.45;9.43;;;;;;;;;;5271441;28;20046;-82
2022/10/13 08:56:49;;;;;;;24.92;10.82;;;;;;;;;;5279303;28;20038;-82
2022/10/13 08:59:20;;;;;;;17.67;10.40;;;;;;;;;;5279327;28;20433;-82
2022/10/13 09:01:52;;;;;;;10.73;9.73;;;;;;;;;;5277076;28;20036;-82
2022/10/13 09:04:35;;;;;;;17.20;9.30;;;;;;;;;;5275356;28;20023;-82
2022/10/13 09:07:09;;;;;;;9.68;8.77;;;;;;;;;;5276066;28;20016;-82
2022/10/13 09:09:39;;;;;;;10.57;9.43;;;;;;;;;;5257437;28;20020;-82
2022/10/13 09:12:11;;;;;;;10.50;8.70;;;;;;;;;;5256774;28;20020;-83
2022/10/13 09:14:41;;;;;;;11.00;8.73;;;;;;;;;;5274513;28;20393;-82
2022/10/13 09:17:19;;;;;;;11.25;10.15;;;;;;;;;;5256134;28;20035;-82
2022/10/13 09:20:00;;;;;;;9.18;8.38;;;;;;;;;;5274852;28;20028;-82
2022/10/13 09:22:33;;;;;;;8.88;8.05;;;;;;;;;;5255270;28;20019;-82
2022/10/13 09:25:10;;;;;;;9.45;8.52;;;;;;;;;;5255160;28;20405;-82
2022/10/13 09:27:44;;;;;;;11.13;7.85;;;;;;;;;;5274502;28;20027;-82
2022/10/13 09:30:25;;;;;;;9.88;9.05;;;;;;;;;;5255825;28;20374;-82
2022/10/13 09:33:10;;;;;;;9.27;8.30;;;;;;;;;;5254763;28;20016;-82
2022/10/13 09:35:43;;;;;;;10.13;9.32;;;;;;;;;;5272964;28;20057;-83
2022/10/13 09:38:23;;;;;;;8.02;7.30;;;;;;;;;;5276046;28;20020;-83
2022/10/13 09:41:09;;;;;;;9.35;8.43;;;;;;;;;;5257701;28;20035;-82
2022/10/13 09:43:41;;;;;;;9.65;8.52;;;;;;;;;;5274893;28;20027;-82
2022/10/13 09:46:30;;;;;;;19.58;8.93;;;;;;;;;;5275968;28;20080;-82
2022/10/13 09:49:03;;;;;;;10.80;9.80;;;;;;;;;;5257339;28;20028;-82
2022/10/13 09:51:35;;;;;;;8.98;8.27;;;;;;;;;;5275094;28;20278;-83
2022/10/13 09:54:22;;;;;;;12.63;8.65;;;;;;;;;;5256759;28;20354;-82
2022/10/13 09:57:00;;;;;;;8.07;7.38;;;;;;;;;;5275663;28;20027;-84
2022/10/13 09:59:32;;;;;;;10.60;9.32;;;;;;;;;;5276836;28;20027;-84
2022/10/13 10:02:20;;;;;;;10.73;9.80;;;;;;;;;;5277465;28;20024;-85
2022/10/13 10:04:52;;;;;;;10.63;9.77;;;;;;;;;;5258271;28;20020;-85
2022/10/13 10:07:26;;;;;;;10.80;9.88;;;;;;;;;;5279306;28;20008;-85
2022/10/13 10:10:00;;;;;;;10.65;9.50;;;;;;;;;;5265000;28;20019;-84
2022/10/13 10:12:34;;;;;;;8.35;7.68;;;;;;;;;;5279863;28;20053;-83
2022/10/13 10:15:15;;;;;;;10.48;9.55;;;;;;;;;;5278623;28;20079;-83
2022/10/13 10:17:50;;;;;;;13.10;9.48;;;;;;;;;;5280761;28;20050;-92
2022/10/13 10:20:31;;;;;;;21.40;8.68;;;;;;;;;;5262634;28;20024;-83
2022/10/13 10:23:21;;;;;;;10.60;9.70;;;;;;;;;;5280942;28;20444;-83
2022/10/13 10:26:02;;;;;;;10.52;9.65;;;;;;;;;;5280043;28;20020;-82
2022/10/13 10:28:46;;;;;;;10.88;9.85;;;;;;;;;;5261398;28;20032;-82
2022/10/13 10:31:25;;;;;;;10.63;9.30;;;;;;;;;;5280612;28;20482;-82
2022/10/13 10:33:55;;;;;;;10.43;9.48;;;;;;;;;;5260167;28;20012;-83
2022/10/13 10:36:48;;;;;;;9.57;8.70;;;;;;;;;;5260271;28;20024;-83
2022/10/13 10:39:33;;;;;;;12.98;9.20;;;;;;;;;;5276435;28;20047;-83
2022/10/13 10:42:12;;;;;;;10.30;8.77;;;;;;;;;;5278294;28;20359;-83
2022/10/13 10:44:43;;;;;;;14.10;10.40;;;;;;;;;;5276833;28;20393;-84
2022/10/13 10:47:25;;;;;;;13.98;8.63;;;;;;;;;;5277914;28;20021;-83
2022/10/13 10:50:01;;;;;;;12.98;10.85;;;;;;;;;;5260128;28;20020;-84
2022/10/13 10:52:51;;;;;;;11.23;10.23;;;;;;;;;;5277335;28;20032;-83
2022/10/13 10:55:24;;;;;;;9.30;8.40;;;;;;;;;;5258242;28;20051;-82
2022/10/13 10:57:54;;;;;;;10.65;9.60;;;;;;;;;;5278189;28;20028;-83
2022/10/13 11:00:25;;;;;;;9.83;8.93;;;;;;;;;;5261005;28;20031;-82
2022/10/13 11:03:07;;;;;;;12.40;10.80;;;;;;;;;;5260444;28;20024;-83
2022/10/13 11:05:57;;;;;;;11.48;10.43;;;;;;;;;;5278350;28;20020;-82
2022/10/13 11:08:29;;;;;;;11.10;9.85;;;;;;;;;;5281534;28;20016;-83
2022/10/13 11:11:26;;;;;;;10.93;9.60;;;;;;;;;;5269110;28;20039;-82
2022/10/13 11:13:58;;;;;;;9.13;8.38;;;;;;;;;;5278193;28;20036;-81
2022/10/13 11:16:28;;;;;;;12.48;11.38;;;;;;;;;;5285537;28;20016;-82
2022/10/13 11:19:06;;;;;;;11.60;10.60;;;;;;;;;;5290535;28;20028;-83
2022/10/13 11:22:05;;;;;;;11.27;10.30;;;;;;;;;;5273360;28;20254;-81
2022/10/13 11:24:37;;;;;;;12.23;10.30;;;;;;;;;;5269953;28;20031;-84
2022/10/13 11:27:10;;;;;;;12.25;10.93;;;;;;;;;;5286188;28;20104;-82
2022/10/13 11:29:56;;;;;;;11.55;10.45;;;;;;;;;;5267896;28;20097;-82
2022/10/13 11:32:29;;;;;;;14.93;11.70;;;;;;;;;;5284711;28;20028;-83
2022/10/13 11:34:59;;;;;;;19.15;10.93;;;;;;;;;;5267594;28;20024;-81
2022/10/13 11:38:08;;;;;;;11.90;10.90;;;;;;;;;;5286586;28;20088;-82
2022/10/13 11:40:56;;;;;;;17.02;11.38;;;;;;;;;;5201447;28;20300;-81
2022/10/13 11:43:38;;;;;;;13.93;10.95;;;;;;;;;;5199667;28;20053;-83
2022/10/13 11:46:17;;;;;;;14.45;12.93;;;;;;;;;;5266921;28;20032;-83
2022/10/13 11:48:53;;;;;;;10.02;9.30;;;;;;;;;;5275752;28;20080;-83
2022/10/13 11:51:33;;;;;;;15.23;13.25;;;;;;;;;;5250478;28;20413;-82
2022/10/13 11:54:14;;;;;;;17.05;10.40;;;;;;;;;;5267986;28;20027;-82
2022/10/13 11:56:46;;;;;;;10.27;9.55;;;;;;;;;;5267859;28;20043;-81
2022/10/13 11:59:22;;;;;;;10.82;9.82;;;;;;;;;;5250779;28;20025;-82
2022/10/13 12:01:53;;;;;;;11.55;10.48;;;;;;;;;;5250836;28;20070;-81
2022/10/13 12:04:25;;;;;;;13.65;12.27;;;;;;;;;;5266971;28;20078;-82
2022/10/13 12:06:58;;;;;;;10.57;9.50;;;;;;;;;;5249868;28;20040;-81
2022/10/13 12:09:30;;;;;;;18.48;14.10;;;;;;;;;;5268311;28;20080;-81
2022/10/13 12:12:20;;;;;;;15.07;13.65;;;;;;;;;;5250431;28;20031;-82
2022/10/13 12:14:51;;;;;;;14.27;12.35;;;;;;;;;;5267865;28;20020;-81
2022/10/13 12:17:24;;;;;;;22.15;13.35;;;;;;;;;;5253519;28;20062;-81
2022/10/13 12:19:59;;;;;;;13.52;12.23;;;;;;;;;;5267653;28;20060;-82
2022/10/13 12:22:29;;;;;;;12.82;11.35;;;;;;;;;;5271373;28;20025;-81
2022/10/13 12:25:01;;;;;;;15.10;13.82;;;;;;;;;;5271200;28;20167;-82
2022/10/13 12:27:39;;;;;;;16.17;11.93;;;;;;;;;;5275992;28;20423;-82
2022/10/13 12:30:29;;;;;;;13.85;12.63;;;;;;;;;;5268550;28;20040;-82
2022/10/13 12:33:00;;;;;;;14.18;12.95;;;;;;;;;;5243240;28;20027;-82
2022/10/13 12:35:31;;;;;;;12.07;11.23;;;;;;;;;;5263952;28;20020;-83
2022/10/13 12:38:04;;;;;;;13.45;10.63;;;;;;;;;;5264390;28;20021;-83
2022/10/13 12:40:34;;;;;;;12.75;11.57;;;;;;;;;;5260165;28;20096;-82
2022/10/13 12:43:05;;;;;;;12.80;11.40;;;;;;;;;;5280065;28;20012;-82
2022/10/13 12:45:35;;;;;;;13.93;12.73;;;;;;;;;;5278366;28;20019;-82
2022/10/13 12:48:06;;;;;;;13.00;11.77;;;;;;;;;;5260502;28;20478;-82
2022/10/13 12:50:37;;;;;;;12.38;11.38;;;;;;;;;;5279242;28;20050;-84
2022/10/13 12:53:07;;;;;;;12.45;11.48;;;;;;;;;;5261058;28;20028;-84
2022/10/13 12:55:57;;;;;;;12.80;11.83;;;;;;;;;;5278119;28;20024;-84
2022/10/13 12:58:32;;;;;;;16.08;14.55;;;;;;;;;;5280890;28;20266;-83
2022/10/13 13:01:03;;;;;;;13.45;12.48;;;;;;;;;;5279599;28;20024;-82
2022/10/13 13:03:35;;;;;;;15.30;12.77;;;;;;;;;;5280947;28;20028;-84
2022/10/13 13:06:26;;;;;;;15.13;13.25;;;;;;;;;;5261579;28;20262;-82
2022/10/13 13:09:07;;;;;;;14.15;12.48;;;;;;;;;;5279579;28;20032;-82
2022/10/13 13:11:37;;;;;;;19.85;13.02;;;;;;;;;;5262458;28;20051;-82
2022/10/13 13:14:21;;;;;;;12.45;11.45;;;;;;;;;;5280287;28;20016;-82
2022/10/13 13:17:02;;;;;;;14.15;12.73;;;;;;;;;;5262810;28;20119;-82
2022/10/13 13:19:33;;;;;;;13.63;12.52;;;;;;;;;;5262277;28;20044;-82
2022/10/13 13:22:04;;;;;;;11.32;10.32;;;;;;;;;;5279298;28;20020;-82
2022/10/13 13:24:34;;;;;;;18.00;12.57;;;;;;;;;;5260636;28;20172;-81
2022/10/13 13:27:24;;;;;;;12.93;11.27;;;;;;;;;;5280312;28;20116;-82
2022/10/13 13:29:55;;;;;;;14.18;12.95;;;;;;;;;;5279598;28;20079;-81
2022/10/13 13:32:26;;;;;;;13.15;11.93;;;;;;;;;;5261601;28;20584;-81
2022/10/13 13:34:56;;;;;;;14.00;12.68;;;;;;;;;;5278560;28;20039;-82
2022/10/13 13:37:32;;;;;;;16.37;14.67;;;;;;;;;;5262165;28;20497;-82
2022/10/13 13:40:03;;;;;;;13.80;12.65;;;;;;;;;;5278994;28;20281;-82
2022/10/13 13:42:34;;;;;;;13.57;12.10;;;;;;;;;;5279036;28;20020;-82
2022/10/13 13:45:04;;;;;;;13.25;12.10;;;;;;;;;;5278500;28;20016;-82
2022/10/13 13:47:34;;;;;;;20.70;15.50;;;;;;;;;;5279153;28;20023;-82
2022/10/13 13:50:12;;;;;;;15.70;14.03;;;;;;;;;;5276040;28;20018;-82
2022/10/13 13:52:42;;;;;;;15.25;13.85;;;;;;;;;;5279415;28;20278;-82
2022/10/13 13:55:12;;;;;;;14.93;13.85;;;;;;;;;;5260637;28;20053;-82
2022/10/13 13:57:43;;;;;;;14.40;13.25;;;;;;;;;;5278957;28;20019;-80
2022/10/13 14:00:14;;;;;;;15.80;14.35;;;;;;;;;;5279359;28;20050;-82
2022/10/13 14:02:45;;;;;;;16.58;14.80;;;;;;;;;;5279006;28;20016;-81
2022/10/13 14:05:15;;;;;;;16.02;14.45;;;;;;;;;;5279132;28;20016;-81
2022/10/13 14:07:45;;;;;;;16.50;15.15;;;;;;;;;;5278093;28;20016;-82
2022/10/13 14:10:16;;;;;;;14.65;13.65;;;;;;;;;;5274517;28;20275;-82
2022/10/13 14:12:46;;;;;;;14.63;13.25;;;;;;;;;;5256350;28;20035;-81
2022/10/13 14:15:16;;;;;;;14.77;13.55;;;;;;;;;;5256457;28;20075;-81
2022/10/13 14:17:47;;;;;;;16.52;14.85;;;;;;;;;;5257717;28;20013;-81
2022/10/13 14:20:17;;;;;;;19.67;15.85;;;;;;;;;;5257622;28;20051;-81
2022/10/13 14:22:47;;;;;;;16.40;14.32;;;;;;;;;;5268787;28;20034;-81
2022/10/13 14:25:18;;;;;;;14.35;12.45;;;;;;;;;;5267174;28;20085;-82
2022/10/13 14:27:48;;;;;;;15.00;13.07;;;;;;;;;;5239928;28;20028;-82
2022/10/13 14:30:19;;;;;;;14.73;13.45;;;;;;;;;;5253448;28;20020;-82
2022/10/13 14:32:49;;;;;;;12.40;11.23;;;;;;;;;;5278538;28;20510;-82
2022/10/13 14:35:19;;;;;;;13.05;11.82;;;;;;;;;;5260149;28;20077;-82
2022/10/13 14:37:50;;;;;;;14.68;13.10;;;;;;;;;;5278700;28;20090;-83
2022/10/13 14:40:20;;;;;;;13.98;12.73;;;;;;;;;;5280003;28;20020;-81
2022/10/13 14:42:50;;;;;;;12.55;11.43;;;;;;;;;;5277554;28;20031;-82
2022/10/13 14:45:21;;;;;;;15.73;13.00;;;;;;;;;;5277192;28;20479;-81
2022/10/13 14:47:52;;;;;;;12.93;11.53;;;;;;;;;;5280718;28;20020;-81
2022/10/13 14:50:23;;;;;;;12.27;11.18;;;;;;;;;;5280213;28;20262;-84
2022/10/13 14:52:53;;;;;;;14.98;13.27;;;;;;;;;;5262580;22;20041;-63
2022/10/13 14:55:59;;;;;;;11.75;10.77;;;;;;;;;;5221034;28;20036;-61
2022/10/13 14:58:29;;;;;;;11.93;10.95;;;;;;;;;;5223194;28;20485;-62
2022/10/13 15:00:59;;;;;;;12.95;11.70;;;;;;;;;;5222388;28;20036;-62
2022/10/13 15:03:30;;;;;;;14.00;12.40;;;;;;;;;;5220612;28;20020;-63